Hollansburg, Ohio
Current Conditions -  °F | °C
As of 3:35 PM on Monday 24 Nov 2014 (Local Time) from KVES Reporting Station
Overcast Overcast  
Wind Chill: 29°   Ceiling: 2000
Heat Index: 39°   Visibility: 10mi
Dew Point: 36°   Wind: 22mph
Humidity: 87%   Direction: 240°WSW
Pressure: 29.62"   Gusts: 31mph
Location:  40°N, 84.79°W
Report Text: KVES 242035Z AUTO 24019G27KT 10SM BKN020 OVC025 04/02 A2962 RMK AO2
Loading
Personal Weather Stations






























Interactive Weather Map New forecast layout! Learn more

10-Day Weather Forecast

Advertisements
Track Severe Weather on mobile